createdAt,value
2018-11-03T09:02:23.102Z,2.17
2018-11-03T09:07:24.549Z,2.49
2018-11-03T09:12:25.917Z,2.84
2018-11-03T09:17:27.393Z,2.28
2018-11-03T09:22:30.066Z,2.52
2018-11-03T09:27:31.521Z,2.82
2018-11-03T09:32:33.961Z,2.46
2018-11-03T09:37:37.437Z,2.60
2018-11-03T09:42:38.467Z,3.49
2018-11-03T09:47:40.000Z,3.81
2018-11-03T09:52:41.376Z,3.66
2018-11-03T09:57:42.936Z,3.45
2018-11-03T10:02:44.906Z,4.54
2018-11-03T10:07:46.534Z,4.37
2018-11-03T10:12:48.107Z,4.08
2018-11-03T10:17:49.614Z,4.99
2018-11-03T10:22:51.172Z,5.90
2018-11-03T10:27:52.482Z,6.17
2018-11-03T10:32:53.892Z,4.80
2018-11-03T10:37:55.253Z,5.20
2018-11-03T10:42:56.659Z,5.44
2018-11-03T10:47:58.085Z,4.84
2018-11-03T10:52:59.466Z,5.36
2018-11-03T10:58:00.924Z,5.01
2018-11-03T11:03:02.386Z,4.80
2018-11-03T11:12:33.239Z,5.83
2018-11-03T11:17:33.900Z,6.76
2018-11-03T11:22:34.591Z,7.17
2018-11-03T11:33:01.438Z,7.35
2018-11-03T11:45:47.186Z,7.91
2018-11-03T11:50:48.706Z,8.10
2018-11-03T11:55:50.104Z,8.65
2018-11-03T12:00:51.510Z,8.88
2018-11-03T12:05:52.845Z,9.99
2018-11-03T12:10:54.217Z,10.02
2018-11-03T12:15:55.732Z,9.82
2018-11-03T12:20:57.273Z,9.45
2018-11-03T12:25:58.727Z,9.87
2018-11-03T12:31:00.101Z,8.99
2018-11-03T12:36:01.514Z,9.49
2018-11-03T12:41:03.074Z,9.84
2018-11-03T12:46:04.574Z,9.90
2018-11-03T12:51:06.079Z,10.24
2018-11-03T12:56:07.640Z,10.61
2018-11-03T13:01:13.125Z,11.04
2018-11-03T13:16:43.809Z,10.74
2018-11-03T13:21:44.739Z,10.88
2018-11-03T13:26:45.615Z,10.64
2018-11-03T13:31:50.262Z,11.23
2018-11-03T13:36:58.813Z,11.43
2018-11-03T13:42:03.246Z,11.45
2018-11-03T13:47:07.961Z,11.38
2018-11-03T13:57:16.686Z,11.45
2018-11-03T14:02:22.608Z,11.16
2018-11-03T14:07:23.507Z,11.58
2018-11-03T14:12:24.341Z,11.41
2018-11-03T14:17:25.194Z,11.34
2018-11-03T14:22:26.024Z,11.39
2018-11-03T14:42:39.119Z,11.18
2018-11-03T14:47:40.567Z,11.04
2018-11-03T14:52:41.963Z,10.88
2018-11-03T14:57:44.263Z,11.45
2018-11-03T15:02:45.824Z,11.27
2018-11-03T15:07:47.338Z,11.05
2018-11-03T15:12:48.812Z,11.33
2018-11-03T15:17:50.301Z,11.07
2018-11-03T15:22:51.253Z,10.87
2018-11-03T15:27:52.738Z,10.87
2018-11-03T15:32:54.191Z,11.35
2018-11-03T15:37:55.690Z,11.90
2018-11-03T15:42:57.165Z,11.55
2018-11-03T15:47:58.862Z,9.95
2018-11-03T15:53:01.121Z,9.10
2018-11-03T15:58:02.636Z,8.36
2018-11-03T16:03:06.305Z,8.22
2018-11-03T16:08:08.605Z,7.73
2018-11-03T16:13:10.141Z,7.37
2018-11-03T16:18:11.506Z,7.28
2018-11-03T16:23:13.004Z,6.81
2018-11-03T16:28:14.487Z,6.57
2018-11-03T16:33:16.012Z,6.28
2018-11-03T16:38:17.529Z,5.86
2018-11-03T16:43:18.963Z,5.70
2018-11-03T16:48:20.433Z,5.56
2018-11-03T16:53:21.890Z,5.57
2018-11-03T16:58:23.388Z,5.37
2018-11-03T17:03:24.805Z,5.24
2018-11-03T17:08:26.269Z,5.07
2018-11-03T17:13:27.275Z,5.04
2018-11-03T17:18:28.898Z,4.98
2018-11-03T17:23:30.463Z,4.93
2018-11-03T17:34:12.339Z,4.59
2018-11-03T17:39:14.183Z,4.48
2018-11-03T17:44:15.351Z,4.54
2018-11-03T17:49:20.809Z,4.16
2018-11-03T17:54:22.897Z,4.26
2018-11-03T17:59:26.030Z,4.36
2018-11-03T18:04:31.184Z,4.26
2018-11-03T18:09:34.369Z,3.75
2018-11-03T18:14:37.063Z,3.88
2018-11-03T18:19:38.850Z,4.21
2018-11-03T18:24:42.202Z,4.22
2018-11-03T18:29:43.796Z,4.11
2018-11-03T18:34:53.225Z,4.14
2018-11-03T18:39:58.783Z,4.09
2018-11-03T18:45:01.179Z,3.83
2018-11-03T18:50:06.273Z,3.64
2018-11-03T18:55:07.909Z,3.47
2018-11-03T19:00:11.435Z,3.61
2018-11-03T19:10:24.040Z,3.54
2018-11-03T19:15:27.730Z,3.47
2018-11-03T19:20:32.137Z,3.33
2018-11-03T19:25:41.758Z,3.41
2018-11-03T19:30:42.606Z,3.36
2018-11-03T19:35:44.916Z,3.54
2018-11-03T19:40:47.035Z,3.43
2018-11-03T19:51:03.626Z,3.28
2018-11-03T19:56:08.882Z,3.32
2018-11-03T20:11:45.750Z,3.09
2018-11-03T20:16:47.037Z,3.15
2018-11-03T20:21:47.885Z,3.08
2018-11-03T20:26:48.768Z,2.78
2018-11-03T20:31:50.532Z,3.07
2018-11-03T20:36:52.524Z,2.94
2018-11-03T20:41:57.309Z,3.05
2018-11-03T20:52:12.034Z,3.10
2018-11-03T20:57:15.234Z,3.28
2018-11-03T21:02:15.806Z,3.27
2018-11-03T21:07:16.430Z,3.51
2018-11-03T21:12:17.107Z,3.63
2018-11-03T21:22:28.980Z,3.26
2018-11-03T21:27:30.059Z,3.56
2018-11-03T21:32:30.752Z,3.56
2018-11-03T21:37:32.189Z,3.90
2018-11-03T21:42:35.484Z,3.96
2018-11-03T21:47:39.265Z,4.04
2018-11-03T21:52:43.541Z,4.18
2018-11-03T21:57:44.189Z,4.32
2018-11-03T22:02:45.692Z,3.75
2018-11-03T22:07:50.307Z,3.91
2018-11-03T22:12:54.371Z,4.17
2018-11-03T22:18:02.542Z,3.90
2018-11-03T22:23:06.154Z,3.70
2018-11-03T22:28:09.242Z,3.93
2018-11-03T22:33:16.209Z,3.94
2018-11-03T22:43:22.771Z,3.98
2018-11-03T22:48:24.548Z,4.05
2018-11-03T22:53:26.398Z,3.97
2018-11-03T22:58:28.024Z,4.35
2018-11-03T23:03:31.585Z,4.18
2018-11-03T23:13:44.670Z,4.70
2018-11-03T23:18:51.767Z,4.26
2018-11-03T23:23:55.076Z,3.93
2018-11-03T23:29:04.522Z,4.35
2018-11-03T23:34:11.187Z,4.78
2018-11-03T23:39:13.473Z,5.01
2018-11-03T23:44:16.300Z,5.21
2018-11-03T23:49:22.110Z,5.31
2018-11-03T23:54:26.177Z,5.55
2018-11-03T23:59:32.994Z,5.61
